createdAt,value
2023-04-12T00:00:11.354Z,9.55
2023-04-12T00:02:40.605Z,8.65
2023-04-12T00:05:11.551Z,9.18
2023-04-12T00:07:46.783Z,9.43
2023-04-12T00:10:15.167Z,9.30
2023-04-12T00:12:43.429Z,9.27
2023-04-12T00:15:12.662Z,8.52
2023-04-12T00:17:41.209Z,8.68
2023-04-12T00:20:12.789Z,9.50
2023-04-12T00:22:43.013Z,9.00
2023-04-12T00:25:12.146Z,8.85
2023-04-12T00:27:40.644Z,8.32
2023-04-12T00:30:10.378Z,8.50
2023-04-12T00:32:38.748Z,7.70
2023-04-12T00:35:08.534Z,8.32
2023-04-12T00:37:38.546Z,8.32
2023-04-12T00:40:11.795Z,7.78
2023-04-12T00:42:40.271Z,7.78
2023-04-12T00:45:10.112Z,7.50
2023-04-12T00:47:39.368Z,7.80
2023-04-12T00:50:09.823Z,7.45
2023-04-12T00:52:39.186Z,7.20
2023-04-12T00:55:10.492Z,7.80
2023-04-12T00:57:41.529Z,6.80
2023-04-12T01:00:13.483Z,7.25
2023-04-12T01:02:47.652Z,6.70
2023-04-12T01:05:21.707Z,7.50
2023-04-12T01:08:00.781Z,7.68
2023-04-12T01:10:43.093Z,7.32
2023-04-12T01:13:28.179Z,6.35
2023-04-12T01:16:03.111Z,6.70
2023-04-12T01:18:40.766Z,6.65
2023-04-12T01:21:17.934Z,6.93
2023-04-12T01:24:02.654Z,6.88
2023-04-12T01:26:42.872Z,6.47
2023-04-12T01:29:15.295Z,6.50
2023-04-12T01:31:52.018Z,6.55
2023-04-12T01:34:21.577Z,6.22
2023-04-12T01:36:50.273Z,6.22
2023-04-12T01:39:18.610Z,5.28
2023-04-12T01:41:49.033Z,5.90
2023-04-12T01:44:19.764Z,5.20
2023-04-12T01:46:49.949Z,5.78
2023-04-12T01:49:20.311Z,5.15
2023-04-12T01:51:59.592Z,6.10
2023-04-12T01:54:34.582Z,5.53
2023-04-12T01:57:08.438Z,5.30
2023-04-12T01:59:41.884Z,5.00
2023-04-12T02:02:12.751Z,5.80
2023-04-12T02:04:43.095Z,6.22
2023-04-12T02:07:11.612Z,5.47
2023-04-12T02:09:40.853Z,5.75
2023-04-12T02:12:10.715Z,5.43
2023-04-12T02:14:40.486Z,5.88
2023-04-12T02:17:09.663Z,5.47
2023-04-12T02:19:38.875Z,5.20
2023-04-12T02:22:08.339Z,4.90
2023-04-12T02:24:36.769Z,5.68
2023-04-12T02:27:06.051Z,5.85
2023-04-12T02:29:35.147Z,5.80
2023-04-12T02:32:06.115Z,5.40
2023-04-12T02:34:36.610Z,5.68
2023-04-12T02:37:17.962Z,5.65
2023-04-12T02:39:46.289Z,6.00
2023-04-12T02:42:14.946Z,6.28
2023-04-12T02:44:47.807Z,6.97
2023-04-12T02:47:18.009Z,6.07
2023-04-12T02:49:49.198Z,6.40
2023-04-12T02:52:20.134Z,5.90
2023-04-12T02:55:01.524Z,6.57
2023-04-12T02:57:30.425Z,6.75
2023-04-12T02:59:58.810Z,6.55
2023-04-12T03:02:35.616Z,6.18
2023-04-12T03:05:08.052Z,6.70
2023-04-12T03:07:41.575Z,6.90
2023-04-12T03:10:12.777Z,6.82
2023-04-12T03:12:53.264Z,7.10
2023-04-12T03:15:23.681Z,6.60
2023-04-12T03:17:55.464Z,7.20
2023-04-12T03:20:29.532Z,7.20
2023-04-12T03:23:04.910Z,7.28
2023-04-12T03:25:37.008Z,7.60
2023-04-12T03:28:27.653Z,8.35
2023-04-12T03:30:56.584Z,8.13
2023-04-12T03:33:30.384Z,7.93
2023-04-12T03:36:03.776Z,7.65
2023-04-12T03:38:33.199Z,8.13
2023-04-12T03:41:01.839Z,7.80
2023-04-12T03:43:38.411Z,8.18
2023-04-12T03:46:16.809Z,9.07
2023-04-12T03:48:48.476Z,8.68
2023-04-12T03:51:17.564Z,10.43
2023-04-12T03:53:46.586Z,9.70
2023-04-12T03:56:17.150Z,9.98
2023-04-12T03:58:49.296Z,9.43
2023-04-12T04:01:18.041Z,9.10
2023-04-12T04:03:49.253Z,8.80
2023-04-12T04:06:24.863Z,8.57
2023-04-12T04:08:57.293Z,8.43
2023-04-12T04:11:28.473Z,8.70
2023-04-12T04:14:05.361Z,8.23
2023-04-12T04:16:34.218Z,7.75
2023-04-12T04:19:06.357Z,8.63
2023-04-12T04:21:35.078Z,8.10
2023-04-12T04:24:04.143Z,7.80
2023-04-12T04:26:38.440Z,7.88
2023-04-12T04:29:18.340Z,8.43
2023-04-12T04:31:47.241Z,8.07
2023-04-12T04:34:19.282Z,8.85
2023-04-12T04:36:49.338Z,9.93
2023-04-12T04:39:29.394Z,10.57
2023-04-12T04:42:00.051Z,8.70
2023-04-12T04:44:38.229Z,9.50
2023-04-12T04:47:09.217Z,9.43
2023-04-12T04:49:39.220Z,9.25
2023-04-12T04:52:27.862Z,9.35
2023-04-12T04:55:02.915Z,9.57
2023-04-12T04:57:37.490Z,9.15
2023-04-12T05:00:11.166Z,9.35
2023-04-12T05:02:43.927Z,9.07
2023-04-12T05:05:17.164Z,8.63
2023-04-12T05:07:47.420Z,7.90
2023-04-12T05:10:16.398Z,8.07
2023-04-12T05:12:45.475Z,8.68
2023-04-12T05:15:16.091Z,7.95
2023-04-12T05:17:45.323Z,7.43
2023-04-12T05:20:13.735Z,6.90
2023-04-12T05:22:43.392Z,7.40
2023-04-12T05:27:51.367Z,6.60
2023-04-12T05:30:21.756Z,7.30
2023-04-12T05:32:50.996Z,6.85
2023-04-12T05:35:20.434Z,7.13
2023-04-12T05:37:51.843Z,6.47
2023-04-12T05:40:20.484Z,7.63
2023-04-12T05:42:52.263Z,7.38
2023-04-12T05:45:20.902Z,7.22
2023-04-12T05:47:49.549Z,7.53
2023-04-12T05:50:18.536Z,7.88
2023-04-12T05:52:48.556Z,7.88
2023-04-12T05:55:18.520Z,7.43
2023-04-12T05:57:47.583Z,8.00
2023-04-12T06:00:19.095Z,8.30
2023-04-12T06:02:50.537Z,8.00
2023-04-12T06:05:19.692Z,8.10
2023-04-12T06:07:48.249Z,8.07
2023-04-12T06:10:18.953Z,8.82
2023-04-12T06:12:53.430Z,7.55
2023-04-12T06:15:22.118Z,7.97
2023-04-12T06:17:55.939Z,8.27
2023-04-12T06:20:24.264Z,7.72
2023-04-12T06:22:52.830Z,7.55
2023-04-12T06:25:24.186Z,7.25
2023-04-12T06:27:53.804Z,7.57
2023-04-12T06:30:24.348Z,9.35
2023-04-12T06:32:54.810Z,8.32
2023-04-12T06:35:24.366Z,7.90
2023-04-12T06:37:53.052Z,8.65
2023-04-12T06:40:23.587Z,7.15
2023-04-12T06:42:51.892Z,7.88
2023-04-12T06:45:23.869Z,7.97
2023-04-12T06:47:56.186Z,8.05
2023-04-12T06:50:25.974Z,6.75
2023-04-12T06:52:54.312Z,7.20
2023-04-12T06:55:24.292Z,8.77
2023-04-12T06:57:52.550Z,8.68
2023-04-12T07:00:21.395Z,8.80
2023-04-12T07:02:49.912Z,7.47
2023-04-12T07:05:18.574Z,7.72
2023-04-12T07:07:47.079Z,7.95
2023-04-12T07:10:15.736Z,8.30
2023-04-12T07:12:45.495Z,8.32
2023-04-12T07:15:13.867Z,7.97
2023-04-12T07:17:42.250Z,6.65
2023-04-12T07:20:12.378Z,7.32
2023-04-12T07:22:40.844Z,7.10
2023-04-12T07:25:11.008Z,7.07
2023-04-12T07:27:39.372Z,6.90
2023-04-12T07:30:10.543Z,6.85
2023-04-12T07:32:38.942Z,7.10
2023-04-12T07:35:08.611Z,7.03
2023-04-12T07:37:37.338Z,7.70
2023-04-12T07:40:07.474Z,6.78
2023-04-12T07:42:35.854Z,7.13
2023-04-12T07:45:04.711Z,6.30
2023-04-12T07:47:34.470Z,8.15
2023-04-12T07:50:04.088Z,6.50
2023-04-12T07:52:33.638Z,7.80
2023-04-12T07:55:02.036Z,7.03
2023-04-12T07:57:32.446Z,8.40
2023-04-12T08:00:02.427Z,6.95
2023-04-12T08:02:42.884Z,7.55
2023-04-12T08:05:11.592Z,6.93
2023-04-12T08:07:39.858Z,7.15
2023-04-12T08:10:10.001Z,7.00
2023-04-12T08:12:38.346Z,7.57
2023-04-12T08:15:08.034Z,7.25
2023-04-12T08:17:36.544Z,7.33
2023-04-12T08:20:07.752Z,7.10
2023-04-12T08:22:36.096Z,6.70
2023-04-12T08:25:04.429Z,8.30
2023-04-12T08:27:32.792Z,7.22
2023-04-12T08:30:01.163Z,6.78
2023-04-12T08:32:29.596Z,7.30
2023-04-12T08:34:57.911Z,6.75
2023-04-12T08:37:27.656Z,7.05
2023-04-12T08:39:56.011Z,6.82
2023-04-12T08:42:24.356Z,6.82
2023-04-12T08:44:53.762Z,7.82
2023-04-12T08:47:23.503Z,6.85
2023-04-12T08:49:52.321Z,7.40
2023-04-12T08:52:20.652Z,6.97
2023-04-12T08:54:50.479Z,7.07
2023-04-12T08:57:20.319Z,6.77
2023-04-12T08:59:53.015Z,6.82
2023-04-12T09:02:21.645Z,7.93
2023-04-12T09:04:53.588Z,7.43
2023-04-12T09:07:23.953Z,8.10
2023-04-12T09:09:53.553Z,6.72
2023-04-12T09:12:24.172Z,7.03
2023-04-12T09:17:38.852Z,7.78
2023-04-12T09:20:25.719Z,8.52
2023-04-12T09:22:55.761Z,7.47
2023-04-12T09:25:45.880Z,7.07
2023-04-12T09:28:25.593Z,7.75
2023-04-12T09:30:54.933Z,7.60
2023-04-12T09:33:24.945Z,7.43
2023-04-12T09:36:02.620Z,7.90
2023-04-12T09:38:31.592Z,7.28
2023-04-12T09:41:20.484Z,6.50
2023-04-12T09:46:19.052Z,7.20
2023-04-12T09:48:52.072Z,6.35
2023-04-12T09:51:31.285Z,6.93
2023-04-12T09:54:02.027Z,6.75
2023-04-12T09:56:33.706Z,6.85
2023-04-12T09:59:04.326Z,7.75
2023-04-12T10:04:05.313Z,7.63
2023-04-12T10:06:34.651Z,6.78
2023-04-12T10:09:06.699Z,5.85
2023-04-12T10:11:36.533Z,6.35
2023-04-12T10:14:05.444Z,5.97
2023-04-12T10:16:35.711Z,5.00
2023-04-12T10:19:05.309Z,5.60
2023-04-12T10:21:33.718Z,5.80
2023-04-12T10:24:02.857Z,5.03
2023-04-12T10:26:31.594Z,5.80
2023-04-12T10:29:27.694Z,5.00
2023-04-12T10:31:57.745Z,5.93
2023-04-12T10:34:29.143Z,5.13
2023-04-12T10:36:59.492Z,5.47
2023-04-12T10:39:41.170Z,5.25
2023-04-12T10:42:28.064Z,5.30
2023-04-12T10:45:38.353Z,5.60
2023-04-12T10:48:06.961Z,5.10
2023-04-12T10:50:35.600Z,5.55
2023-04-12T10:53:26.623Z,5.40
2023-04-12T10:55:55.451Z,5.30
2023-04-12T10:59:01.677Z,5.50
2023-04-12T11:01:42.131Z,5.75
2023-04-12T11:04:20.338Z,4.28
2023-04-12T11:07:11.844Z,4.47
2023-04-12T11:09:44.072Z,4.38
2023-04-12T11:12:18.555Z,4.72
2023-04-12T11:14:49.283Z,5.03
2023-04-12T11:17:27.416Z,5.00
2023-04-12T11:19:59.430Z,4.57
2023-04-12T11:22:30.888Z,4.38
2023-04-12T11:25:01.894Z,4.32
2023-04-12T11:27:31.780Z,4.82
2023-04-12T11:30:01.608Z,4.60
2023-04-12T11:32:34.655Z,4.45
2023-04-12T11:35:03.299Z,4.72
2023-04-12T11:37:36.223Z,4.25
2023-04-12T11:40:06.508Z,4.50
2023-04-12T11:42:35.141Z,4.97
2023-04-12T11:45:11.406Z,4.68
2023-04-12T11:47:45.655Z,4.53
2023-04-12T11:50:14.007Z,4.53
2023-04-12T11:52:42.500Z,4.10
2023-04-12T11:55:11.872Z,5.80
2023-04-12T11:57:40.450Z,5.28
2023-04-12T12:00:10.954Z,5.38
2023-04-12T12:02:49.265Z,5.70
2023-04-12T12:05:22.921Z,5.20
2023-04-12T12:07:52.631Z,5.57
2023-04-12T12:10:36.559Z,6.68
2023-04-12T12:13:12.728Z,5.75
2023-04-12T12:15:46.111Z,6.75
2023-04-12T12:18:14.671Z,5.97
2023-04-12T12:20:50.367Z,5.22
2023-04-12T12:23:30.960Z,5.85
2023-04-12T12:26:14.251Z,7.38
2023-04-12T12:28:52.398Z,5.60
2023-04-12T12:31:22.707Z,5.90
2023-04-12T12:33:56.852Z,5.00
2023-04-12T12:36:35.797Z,5.85
2023-04-12T12:39:11.523Z,5.40
2023-04-12T12:41:41.193Z,5.03
2023-04-12T12:44:11.275Z,5.45
2023-04-12T12:46:53.396Z,4.10
2023-04-12T12:49:23.861Z,4.60
2023-04-12T12:51:53.577Z,5.60
2023-04-12T12:54:36.650Z,4.75
2023-04-12T12:57:09.375Z,4.50
2023-04-12T12:59:37.704Z,4.18
2023-04-12T13:02:07.451Z,3.60
2023-04-12T13:04:36.441Z,3.60
2023-04-12T13:07:06.399Z,3.90
2023-04-12T13:09:34.896Z,4.03
2023-04-12T13:12:03.459Z,4.72
2023-04-12T13:14:31.840Z,4.05
2023-04-12T13:17:00.166Z,4.18
2023-04-12T13:19:28.584Z,4.35
2023-04-12T13:21:57.556Z,4.53
2023-04-12T13:24:27.337Z,4.65
2023-04-12T13:26:55.661Z,3.77
2023-04-12T13:29:24.132Z,4.65
2023-04-12T13:31:52.501Z,3.88
2023-04-12T13:34:21.149Z,4.63
2023-04-12T13:36:50.752Z,3.95
2023-04-12T13:39:19.179Z,4.32
2023-04-12T13:41:48.892Z,4.10
2023-04-12T13:44:17.186Z,3.85
2023-04-12T13:46:45.546Z,3.67
2023-04-12T13:49:13.816Z,3.78
2023-04-12T13:51:42.264Z,3.97
2023-04-12T13:54:10.593Z,4.28
2023-04-12T13:56:39.005Z,4.00
2023-04-12T13:59:08.659Z,3.80
2023-04-12T14:01:37.151Z,3.63
2023-04-12T14:04:06.546Z,3.72
2023-04-12T14:06:34.996Z,4.20
2023-04-12T14:09:05.613Z,3.65
2023-04-12T14:14:17.091Z,4.05
2023-04-12T14:16:45.738Z,3.72
2023-04-12T14:19:14.157Z,3.78
2023-04-12T14:21:42.461Z,4.22
2023-04-12T14:24:10.756Z,4.30
2023-04-12T14:26:40.382Z,4.05
2023-04-12T14:29:08.831Z,4.00
2023-04-12T14:31:40.394Z,4.07
2023-04-12T14:34:09.409Z,3.90
2023-04-12T14:36:37.809Z,4.13
2023-04-12T14:39:09.343Z,4.28
2023-04-12T14:41:39.251Z,4.32
2023-04-12T14:44:07.511Z,4.72
2023-04-12T14:46:36.238Z,4.32
2023-04-12T14:49:07.032Z,4.50
2023-04-12T14:54:03.693Z,4.90
2023-04-12T14:56:32.952Z,4.72
2023-04-12T14:59:04.300Z,4.65
2023-04-12T15:01:33.913Z,5.00
2023-04-12T15:04:04.213Z,4.55
2023-04-12T15:06:37.253Z,4.43
2023-04-12T15:09:06.639Z,4.60
2023-04-12T15:11:35.562Z,4.95
2023-04-12T15:14:05.955Z,5.30
2023-04-12T15:16:35.842Z,4.90
2023-04-12T15:19:09.134Z,4.88
2023-04-12T15:21:46.799Z,5.13
2023-04-12T15:24:15.107Z,5.13
2023-04-12T15:26:43.470Z,5.57
2023-04-12T15:29:11.916Z,5.88
2023-04-12T15:31:41.149Z,5.63
2023-04-12T15:34:09.778Z,5.53
2023-04-12T15:36:38.852Z,5.10
2023-04-12T15:39:08.612Z,6.07
2023-04-12T15:41:38.965Z,5.57
2023-04-12T15:44:08.202Z,5.40
2023-04-12T15:46:36.946Z,6.30
2023-04-12T15:49:05.511Z,5.55
2023-04-12T15:51:35.466Z,6.38
2023-04-12T15:54:03.981Z,5.50
2023-04-12T15:56:34.604Z,5.85
2023-04-12T16:01:31.443Z,5.43
2023-04-12T16:04:00.086Z,5.30
2023-04-12T16:06:30.484Z,4.60
2023-04-12T16:08:59.319Z,4.97
2023-04-12T16:11:28.210Z,5.28
2023-04-12T16:13:57.956Z,4.93
2023-04-12T16:16:26.475Z,5.27
2023-04-12T16:18:55.759Z,5.65
2023-04-12T16:21:26.473Z,5.70
2023-04-12T16:23:55.484Z,5.30
2023-04-12T16:26:23.992Z,5.50
2023-04-12T16:28:53.746Z,5.28
2023-04-12T16:31:25.458Z,5.40
2023-04-12T16:33:55.673Z,5.32
2023-04-12T16:36:24.541Z,5.22
2023-04-12T16:38:54.983Z,5.28
2023-04-12T16:43:53.869Z,5.18
2023-04-12T16:46:23.694Z,5.03
2023-04-12T16:48:52.014Z,4.78
2023-04-12T16:51:21.088Z,4.53
2023-04-12T16:53:49.386Z,4.93
2023-04-12T16:56:18.459Z,4.95
2023-04-12T16:58:48.816Z,5.00
2023-04-12T17:01:17.829Z,4.28
2023-04-12T17:03:48.865Z,4.38
2023-04-12T17:08:46.597Z,5.35
2023-04-12T17:11:15.120Z,4.72
2023-04-12T17:13:44.643Z,5.28
2023-04-12T17:16:17.441Z,4.45
2023-04-12T17:18:47.463Z,4.40
2023-04-12T17:21:16.933Z,4.78
2023-04-12T17:23:45.507Z,4.82
2023-04-12T17:26:13.925Z,5.10
2023-04-12T17:28:42.862Z,5.25
2023-04-12T17:31:11.459Z,5.10
2023-04-12T17:33:39.840Z,5.32
2023-04-12T17:36:11.768Z,5.13
2023-04-12T17:38:40.321Z,5.20
2023-04-12T17:41:10.230Z,4.78
2023-04-12T17:43:38.780Z,5.32
2023-04-12T17:46:07.659Z,5.22
2023-04-12T17:48:36.097Z,5.72
2023-04-12T17:51:05.523Z,5.97
2023-04-12T17:53:35.180Z,5.07
2023-04-12T17:56:04.452Z,5.28
2023-04-12T17:58:33.709Z,4.43
2023-04-12T18:01:02.291Z,5.15
2023-04-12T18:03:31.543Z,5.32
2023-04-12T18:06:00.876Z,4.50
2023-04-12T18:08:29.264Z,5.00
2023-04-12T18:11:00.639Z,4.90
2023-04-12T18:13:29.362Z,5.50
2023-04-12T18:15:58.072Z,5.32
2023-04-12T18:18:26.629Z,5.70
2023-04-12T18:20:54.969Z,5.40
2023-04-12T18:23:23.376Z,4.72
2023-04-12T18:25:51.721Z,5.60
2023-04-12T18:28:21.543Z,5.55
2023-04-12T18:30:50.092Z,5.10
2023-04-12T18:33:18.455Z,5.72
2023-04-12T18:35:46.863Z,5.40
2023-04-12T18:38:15.219Z,5.80
2023-04-12T18:40:43.579Z,5.63
2023-04-12T18:43:11.885Z,5.80
2023-04-12T18:45:42.214Z,4.82
2023-04-12T18:48:10.864Z,4.88
2023-04-12T18:50:39.756Z,4.38
2023-04-12T18:53:08.698Z,5.05
2023-04-12T18:55:37.244Z,4.30
2023-04-12T18:58:05.936Z,4.28
2023-04-12T19:00:34.443Z,4.50
2023-04-12T19:03:04.294Z,5.00
2023-04-12T19:05:32.885Z,4.68
2023-04-12T19:08:01.626Z,4.50
2023-04-12T19:10:31.726Z,4.40
2023-04-12T19:13:00.117Z,4.45
2023-04-12T19:15:28.555Z,5.03
2023-04-12T19:17:57.922Z,4.88
2023-04-12T19:22:58.392Z,5.30
2023-04-12T19:25:30.866Z,4.93
2023-04-12T19:28:00.428Z,5.03
2023-04-12T19:30:31.051Z,4.55
2023-04-12T19:32:59.658Z,5.18
2023-04-12T19:35:32.718Z,4.50
2023-04-12T19:38:01.093Z,4.90
2023-04-12T19:40:31.141Z,4.80
2023-04-12T19:42:59.787Z,4.40
2023-04-12T19:45:28.868Z,4.82
2023-04-12T19:47:57.411Z,4.60
2023-04-12T19:50:25.841Z,4.72
2023-04-12T19:52:55.665Z,4.43
2023-04-12T19:55:24.231Z,4.10
2023-04-12T19:57:53.139Z,4.30
2023-04-12T20:00:23.129Z,4.00
2023-04-12T20:02:53.757Z,4.22
2023-04-12T20:05:23.980Z,4.38
2023-04-12T20:07:55.930Z,4.40
2023-04-12T20:10:25.900Z,3.97
2023-04-12T20:12:54.246Z,3.80
2023-04-12T20:15:22.575Z,4.63
2023-04-12T20:17:51.906Z,4.53
2023-04-12T20:20:20.627Z,4.22
2023-04-12T20:22:51.894Z,3.80
2023-04-12T20:25:21.190Z,4.15
2023-04-12T20:27:52.196Z,3.70
2023-04-12T20:30:22.945Z,4.28
2023-04-12T20:32:54.531Z,4.15
2023-04-12T20:35:23.585Z,4.15
2023-04-12T20:37:51.956Z,4.53
2023-04-12T20:40:23.326Z,4.40
2023-04-12T20:42:53.157Z,4.07
2023-04-12T20:45:22.448Z,3.85
2023-04-12T20:47:50.962Z,4.32
2023-04-12T20:50:23.065Z,4.30
2023-04-12T20:52:52.475Z,3.78
2023-04-12T20:55:22.733Z,4.25
2023-04-12T20:57:55.851Z,3.92
2023-04-12T21:00:24.516Z,4.00
2023-04-12T21:02:52.957Z,3.50
2023-04-12T21:05:21.867Z,3.83
2023-04-12T21:07:50.296Z,3.95
2023-04-12T21:10:19.129Z,4.07
2023-04-12T21:12:48.024Z,4.18
2023-04-12T21:15:21.717Z,4.18
2023-04-12T21:17:51.600Z,4.10
2023-04-12T21:20:20.424Z,3.83
2023-04-12T21:22:51.914Z,3.90
2023-04-12T21:25:21.214Z,4.85
2023-04-12T21:27:50.718Z,4.00
2023-04-12T21:30:20.855Z,4.45
2023-04-12T21:32:49.224Z,4.57
2023-04-12T21:35:18.247Z,4.90
2023-04-12T21:37:46.702Z,5.35
2023-04-12T21:40:16.103Z,5.38
2023-04-12T21:42:45.276Z,5.75
2023-04-12T21:45:14.352Z,4.90
2023-04-12T21:47:44.413Z,4.85
2023-04-12T21:50:14.634Z,5.25
2023-04-12T21:52:44.084Z,5.00
2023-04-12T21:55:12.670Z,5.13
2023-04-12T21:57:40.987Z,4.63
2023-04-12T22:00:10.676Z,4.55
2023-04-12T22:02:44.178Z,4.30
2023-04-12T22:05:12.875Z,4.28
2023-04-12T22:07:41.788Z,4.38
2023-04-12T22:10:12.174Z,4.32
2023-04-12T22:15:11.978Z,4.07
2023-04-12T22:17:41.029Z,4.63
2023-04-12T22:20:12.783Z,4.30
2023-04-12T22:22:41.448Z,4.22
2023-04-12T22:25:12.722Z,4.18
2023-04-12T22:27:41.011Z,4.47
2023-04-12T22:30:11.544Z,4.40
2023-04-12T22:32:41.218Z,4.32
2023-04-12T22:35:11.659Z,4.68
2023-04-12T22:37:41.249Z,4.00
2023-04-12T22:40:13.667Z,4.15
2023-04-12T22:42:47.334Z,4.28
2023-04-12T22:45:18.176Z,3.90
2023-04-12T22:47:47.602Z,4.10
2023-04-12T22:50:17.488Z,3.58
2023-04-12T22:52:49.869Z,3.55
2023-04-12T22:55:19.190Z,3.28
2023-04-12T22:57:47.460Z,3.70
2023-04-12T23:00:18.138Z,4.15
2023-04-12T23:05:17.680Z,4.13
2023-04-12T23:07:46.140Z,4.15
2023-04-12T23:10:14.470Z,3.85
2023-04-12T23:12:42.813Z,3.72
2023-04-12T23:15:12.705Z,3.13
2023-04-12T23:17:41.128Z,3.30
2023-04-12T23:20:14.901Z,3.65
2023-04-12T23:22:57.803Z,4.05
2023-04-12T23:25:37.837Z,3.60
2023-04-12T23:28:12.569Z,3.43
2023-04-12T23:30:43.798Z,3.50
2023-04-12T23:35:41.758Z,3.58
2023-04-12T23:38:15.396Z,3.50
2023-04-12T23:40:44.413Z,4.10
2023-04-12T23:43:12.662Z,3.50
2023-04-12T23:45:41.430Z,3.42
2023-04-12T23:48:09.852Z,3.53
2023-04-12T23:50:39.045Z,3.30
2023-04-12T23:53:07.732Z,3.70
2023-04-12T23:55:37.423Z,3.92
2023-04-12T23:58:05.985Z,3.67
